createdAt,value
2022-09-10T00:00:40.526Z,17.9
2022-09-10T00:03:02.906Z,17.8
2022-09-10T00:05:36.790Z,17.5
2022-09-10T00:07:57.827Z,17.9
2022-09-10T00:10:12.650Z,17.2
2022-09-10T00:12:27.526Z,17.5
2022-09-10T00:14:42.613Z,17.8
2022-09-10T00:17:12.251Z,17.6
2022-09-10T00:19:13.933Z,17.9
2022-09-10T00:21:35.163Z,17.8
2022-09-10T00:23:55.910Z,17.6
2022-09-10T00:26:16.913Z,17.4
2022-09-10T00:28:37.860Z,17.6
2022-09-10T00:30:58.527Z,17.9
2022-09-10T00:33:32.066Z,17.6
2022-09-10T00:35:52.806Z,17.8
2022-09-10T00:38:13.412Z,17.8
2022-09-10T00:40:34.262Z,17.7
2022-09-10T00:42:54.968Z,17.7
2022-09-10T00:45:10.108Z,17.9
2022-09-10T00:47:38.527Z,17.9
2022-09-10T00:49:46.086Z,18.1
2022-09-10T00:52:06.783Z,17.9
2022-09-10T00:54:21.607Z,17.7
2022-09-10T00:56:36.405Z,18
2022-09-10T00:58:51.317Z,18.1
2022-09-10T01:01:06.202Z,17.5
2022-09-10T01:03:24.938Z,17.8
2022-09-10T01:05:47.794Z,17.6
2022-09-10T01:08:02.653Z,17.6
2022-09-10T01:10:17.485Z,17.6
2022-09-10T01:12:39.161Z,17.9
2022-09-10T01:14:53.332Z,17.6
2022-09-10T01:17:08.214Z,17.9
2022-09-10T01:19:23.087Z,17.5
2022-09-10T01:21:43.778Z,17.8
2022-09-10T01:24:07.886Z,17.5
2022-09-10T01:26:22.641Z,17.8
2022-09-10T01:28:43.609Z,17.6
2022-09-10T01:31:04.234Z,17.3
2022-09-10T01:33:18.979Z,17.4
2022-09-10T01:35:33.840Z,17.6
2022-09-10T01:37:55.001Z,17.1
2022-09-10T01:40:15.725Z,17.4
2022-09-10T01:42:36.471Z,17.1
2022-09-10T01:44:57.199Z,17.3
2022-09-10T01:47:11.988Z,17.3
2022-09-10T01:50:07.391Z,17.6
2022-09-10T01:52:22.103Z,17.5
2022-09-10T01:54:37.220Z,17.6
2022-09-10T01:56:52.220Z,17.3
2022-09-10T01:59:06.777Z,17.7
2022-09-10T02:01:42.557Z,17.4
2022-09-10T02:04:17.164Z,17.5
2022-09-10T02:06:38.386Z,17.3
2022-09-10T02:08:53.263Z,17.4
2022-09-10T02:11:28.740Z,17.6
2022-09-10T02:13:51.512Z,17.8
2022-09-10T02:15:58.358Z,17.6
2022-09-10T02:18:13.191Z,17.3
2022-09-10T02:20:33.985Z,17.6
2022-09-10T02:22:49.078Z,17.3
2022-09-10T02:25:09.726Z,17.6
2022-09-10T02:27:30.570Z,17.4
2022-09-10T02:30:05.659Z,17.5
2022-09-10T02:32:20.805Z,17.5
2022-09-10T02:34:55.595Z,17.8
2022-09-10T02:37:14.479Z,17.8
2022-09-10T02:39:39.958Z,17.2
2022-09-10T02:41:54.794Z,17.6
2022-09-10T02:44:25.012Z,17.5
2022-09-10T02:46:39.836Z,17.4
2022-09-10T02:48:54.583Z,17.4
2022-09-10T02:51:09.589Z,17.6
2022-09-10T02:53:24.400Z,17.6
2022-09-10T02:55:39.579Z,17.5
2022-09-10T02:57:54.367Z,17.3
2022-09-10T03:01:58.036Z,16.8
2022-09-10T03:04:20.011Z,17.4
2022-09-10T03:06:34.217Z,17.3
2022-09-10T03:09:10.056Z,17.5
2022-09-10T03:11:24.860Z,17.1
2022-09-10T03:13:45.097Z,17.1
2022-09-10T03:16:00.575Z,17.6
2022-09-10T03:18:15.305Z,17.4
2022-09-10T03:20:30.206Z,17.6
2022-09-10T03:22:45.245Z,17.6
2022-09-10T03:25:20.581Z,17.3
2022-09-10T03:27:35.360Z,17.5
2022-09-10T03:30:10.902Z,17.4
2022-09-10T03:32:25.736Z,17.3
2022-09-10T03:34:45.786Z,17.2
2022-09-10T03:37:31.910Z,17.3
2022-09-10T03:39:58.067Z,17.4
2022-09-10T03:42:13.185Z,17.6
2022-09-10T03:44:48.246Z,17.4
2022-09-10T03:51:44.381Z,17.3
2022-09-10T03:54:01.477Z,16.8
2022-09-10T03:56:38.688Z,16.8
2022-09-10T03:58:53.703Z,16.8
2022-09-10T04:01:28.856Z,16.9
2022-09-10T04:04:04.302Z,16.6
2022-09-10T04:09:15.301Z,16.9
2022-09-10T04:14:05.319Z,17.2
2022-09-10T04:16:20.160Z,17.3
2022-09-10T04:18:40.836Z,17.3
2022-09-10T04:21:01.579Z,17.3
2022-09-10T04:23:21.963Z,17.3
2022-09-10T04:25:37.317Z,17.2
2022-09-10T04:28:11.969Z,17.4
2022-09-10T04:30:27.360Z,17.3
2022-09-10T04:32:42.346Z,17.3
2022-09-10T04:35:20.297Z,17.5
2022-09-10T04:37:41.300Z,17.1
2022-09-10T04:39:58.568Z,17.3
2022-09-10T04:42:22.082Z,17.6
2022-09-10T04:44:36.901Z,17.1
2022-09-10T04:46:51.102Z,17.3
2022-09-10T04:49:13.842Z,17.1
2022-09-10T04:52:09.101Z,17.4
2022-09-10T04:54:21.662Z,17.5
2022-09-10T04:56:36.525Z,17.1
2022-09-10T04:58:59.619Z,17.3
2022-09-10T05:01:15.102Z,16.9
2022-09-10T05:03:55.165Z,17.1
2022-09-10T05:06:32.065Z,17.4
2022-09-10T05:09:06.371Z,17.4
2022-09-10T05:13:44.907Z,17.2
2022-09-10T05:16:20.078Z,17.6
2022-09-10T05:18:34.959Z,17.4
2022-09-10T05:20:54.913Z,17.7
2022-09-10T05:23:16.178Z,17.8
2022-09-10T05:25:57.133Z,17.8
2022-09-10T05:28:10.097Z,17.6
2022-09-10T05:30:30.943Z,17.8
2022-09-10T05:33:15.792Z,17.6
2022-09-10T05:35:30.574Z,17.6
2022-09-10T05:37:46.097Z,17.6
2022-09-10T05:40:20.748Z,17.7
2022-09-10T05:42:39.551Z,17.7
2022-09-10T05:44:54.412Z,17.8
2022-09-10T05:47:14.803Z,18.2
2022-09-10T05:50:03.847Z,18
2022-09-10T05:52:39.134Z,18.6
2022-09-10T05:54:53.810Z,18.8
2022-09-10T05:57:08.591Z,18.4
2022-09-10T05:59:24.224Z,18.6
2022-09-10T06:02:00.442Z,18.8
2022-09-10T06:04:15.100Z,19.2
2022-09-10T06:06:29.991Z,19.7
2022-09-10T06:09:10.385Z,19.8
2022-09-10T06:11:25.269Z,19.9
2022-09-10T06:14:00.365Z,20.5
2022-09-10T06:16:15.376Z,20.3
2022-09-10T06:18:36.695Z,20.6
2022-09-10T06:20:57.299Z,20.5
2022-09-10T06:23:17.197Z,20.5
2022-09-10T06:25:38.103Z,20.8
2022-09-10T06:28:14.562Z,20.8
2022-09-10T06:30:49.771Z,20.8
2022-09-10T06:33:24.989Z,20.9
2022-09-10T06:36:00.117Z,20.8
2022-09-10T06:38:14.854Z,20.8
2022-09-10T06:40:29.813Z,20.7
2022-09-10T06:42:59.422Z,20.4
2022-09-10T06:45:06.125Z,20.2
2022-09-10T06:48:38.521Z,20.1
2022-09-10T06:50:45.174Z,20.6
2022-09-10T06:52:59.929Z,21.4
2022-09-10T06:55:14.953Z,21.3
2022-09-10T06:57:29.671Z,22.1
2022-09-10T06:59:44.475Z,21.9
2022-09-10T07:01:59.399Z,22.2
2022-09-10T07:04:14.165Z,23.4
2022-09-10T07:06:28.971Z,24.5
2022-09-10T07:08:43.893Z,25.7
2022-09-10T07:10:58.722Z,26.5
2022-09-10T07:13:13.552Z,28.1
2022-09-10T07:15:28.389Z,28.4
2022-09-10T07:17:43.400Z,28.4
2022-09-10T07:19:58.458Z,27.5
2022-09-10T07:22:13.452Z,27.3
2022-09-10T07:24:28.257Z,26.6
2022-09-10T07:26:43.348Z,26.1
2022-09-10T07:28:58.078Z,26.9
2022-09-10T07:31:13.355Z,27.7
2022-09-10T07:33:28.054Z,28.1
2022-09-10T07:35:43.455Z,28.4
2022-09-10T07:37:58.490Z,30.3
2022-09-10T07:40:13.675Z,30
2022-09-10T07:42:28.691Z,31.4
2022-09-10T07:44:43.690Z,31.5
2022-09-10T07:46:58.962Z,32.5
2022-09-10T07:49:14.614Z,30.6
2022-09-10T07:51:29.031Z,31.3
2022-09-10T07:53:50.220Z,33.6
2022-09-10T07:55:58.873Z,34.2
2022-09-10T07:58:13.841Z,34.4
2022-09-10T08:00:28.771Z,34.2
2022-09-10T08:02:43.887Z,35.7
2022-09-10T08:04:58.840Z,35.3
2022-09-10T08:07:13.993Z,37.2
2022-09-10T08:09:29.113Z,36.8
2022-09-10T08:11:43.965Z,37.4
2022-09-10T08:13:58.887Z,37
2022-09-10T08:16:13.887Z,38.3
2022-09-10T08:18:28.758Z,37.7
2022-09-10T08:20:44.155Z,36.9
2022-09-10T08:22:59.452Z,38
2022-09-10T08:25:13.723Z,37.7
2022-09-10T08:27:28.719Z,38.6
2022-09-10T08:29:43.586Z,37.5
2022-09-10T08:31:58.706Z,34.9
2022-09-10T08:34:13.514Z,33.3
2022-09-10T08:36:28.650Z,31.6
2022-09-10T08:38:43.500Z,29.3
2022-09-10T08:40:58.585Z,28.4
2022-09-10T08:43:13.454Z,28.8
2022-09-10T08:45:28.921Z,28.3
2022-09-10T08:47:43.286Z,28.1
2022-09-10T08:52:13.354Z,27.3
2022-09-10T08:54:28.023Z,27
2022-09-10T08:56:43.439Z,27.7
2022-09-10T08:58:58.015Z,27.5
2022-09-10T09:01:52.284Z,27.2
2022-09-10T09:04:17.768Z,26.4
2022-09-10T09:06:32.598Z,26.1
2022-09-10T09:08:47.345Z,25.9
2022-09-10T09:11:02.314Z,25.7
2022-09-10T09:13:17.048Z,25.4
2022-09-10T09:15:31.977Z,24.8
2022-09-10T09:17:46.785Z,25.1
2022-09-10T09:20:01.645Z,24.8
2022-09-10T09:22:16.548Z,24.3
2022-09-10T09:24:44.350Z,24.3
2022-09-10T09:26:58.987Z,24
2022-09-10T09:29:13.944Z,24.1
2022-09-10T09:31:28.776Z,24.4
2022-09-10T09:33:43.653Z,24.1
2022-09-10T09:35:58.436Z,23.6
2022-09-10T09:38:13.427Z,23.6
2022-09-10T09:40:28.123Z,23.4
2022-09-10T09:42:42.923Z,23.8
2022-09-10T09:44:57.771Z,23.7
2022-09-10T09:47:12.633Z,27.9
2022-09-10T09:49:27.593Z,31.4
2022-09-10T09:51:42.461Z,32.8
2022-09-10T09:54:19.834Z,33.4
2022-09-10T09:57:00.725Z,33.4
2022-09-10T09:59:15.438Z,31.7
2022-09-10T10:01:30.307Z,31.9
2022-09-10T10:03:45.114Z,32.6
2022-09-10T10:06:00.654Z,32.4
2022-09-10T10:08:15.473Z,33
2022-09-10T10:10:30.443Z,33.1
2022-09-10T10:12:45.361Z,32.7
2022-09-10T10:15:00.299Z,31.7
2022-09-10T10:17:15.472Z,32.5
2022-09-10T10:19:30.234Z,32.6
2022-09-10T10:21:45.228Z,32.2
2022-09-10T10:24:00.057Z,31.2
2022-09-10T10:26:15.261Z,31.1
2022-09-10T10:28:30.039Z,30.7
2022-09-10T10:30:45.102Z,30.8
2022-09-10T10:32:59.861Z,31.1
2022-09-10T10:35:15.165Z,30.6
2022-09-10T10:37:29.991Z,30.9
2022-09-10T10:39:44.747Z,29.8
2022-09-10T10:41:59.719Z,29.8
2022-09-10T10:44:14.674Z,29.8
2022-09-10T10:46:29.777Z,29.6
2022-09-10T10:48:44.493Z,29.4
2022-09-10T10:50:59.596Z,29.4
2022-09-10T10:53:14.612Z,29.5
2022-09-10T10:55:29.573Z,29.3
2022-09-10T10:57:44.435Z,29.8
2022-09-10T10:59:59.393Z,29.6
2022-09-10T11:02:14.387Z,29.6
2022-09-10T11:04:29.222Z,29.3
2022-09-10T11:06:44.265Z,29.3
2022-09-10T11:08:59.106Z,29.2
2022-09-10T11:11:14.371Z,28.5
2022-09-10T11:13:29.090Z,29
2022-09-10T11:15:44.162Z,29.3
2022-09-10T11:17:58.907Z,29.6
2022-09-10T11:20:29.242Z,29.2
2022-09-10T11:22:42.632Z,27.4
2022-09-10T11:24:57.580Z,26.3
2022-09-10T11:27:12.623Z,25.1
2022-09-10T11:29:27.355Z,24.3
2022-09-10T11:31:42.533Z,23.4
2022-09-10T11:33:57.259Z,22.7
2022-09-10T11:36:12.359Z,22.7
2022-09-10T11:38:27.258Z,22.8
2022-09-10T11:40:42.317Z,22.1
2022-09-10T11:42:57.197Z,22.3
2022-09-10T11:45:11.953Z,22.3
2022-09-10T11:47:27.183Z,22.5
2022-09-10T11:49:41.868Z,22.1
2022-09-10T11:51:57.050Z,23.3
2022-09-10T11:54:11.805Z,21.3
2022-09-10T11:56:26.863Z,21.8
2022-09-10T11:58:41.988Z,21.5
2022-09-10T12:00:56.831Z,20.9
2022-09-10T12:03:11.913Z,22.2
2022-09-10T12:05:26.910Z,20.1
2022-09-10T12:07:41.668Z,20.7
2022-09-10T12:09:56.509Z,19.3
2022-09-10T12:12:11.639Z,20.4
2022-09-10T12:14:26.456Z,19.4
2022-09-10T12:16:41.411Z,18.9
2022-09-10T12:18:56.406Z,19.1
2022-09-10T12:21:11.414Z,21.6
2022-09-10T12:23:26.236Z,21.3
2022-09-10T12:25:41.553Z,21.3
2022-09-10T12:27:56.222Z,20.9
2022-09-10T12:30:10.504Z,20.6
2022-09-10T12:32:26.305Z,20.9
2022-09-10T12:34:41.022Z,21.2
2022-09-10T12:36:56.079Z,20.9
2022-09-10T12:39:10.979Z,21.6
2022-09-10T12:41:26.400Z,21.4
2022-09-10T12:43:41.394Z,21.1
2022-09-10T12:45:56.592Z,21.6
2022-09-10T12:48:11.644Z,21.8
2022-09-10T12:50:26.730Z,22.1
2022-09-10T12:52:41.795Z,21.9
2022-09-10T12:54:56.841Z,21.4
2022-09-10T12:57:11.390Z,21.7
2022-09-10T15:01:51.635Z,22.6
2022-09-10T15:04:06.528Z,22.6
2022-09-10T15:06:25.588Z,21.8
2022-09-10T15:08:36.640Z,22.1
2022-09-10T15:10:51.793Z,21.9
2022-09-10T15:13:06.552Z,22.9
2022-09-10T15:15:21.569Z,22.4
2022-09-10T15:17:36.805Z,21.8
2022-09-10T15:19:51.511Z,21.6
2022-09-10T15:22:06.527Z,23
2022-09-10T15:24:20.936Z,21.4
2022-09-10T15:26:52.335Z,22.3
2022-09-10T15:29:06.877Z,21.5
2022-09-10T15:31:22.392Z,22.3
2022-09-10T15:33:37.715Z,21.5
2022-09-10T15:35:51.749Z,22.4
2022-09-10T15:38:07.286Z,22
2022-09-10T15:40:22.572Z,21.4
2022-09-10T15:42:37.089Z,21.8
2022-09-10T15:44:52.652Z,21.8
2022-09-10T15:47:07.839Z,21.4
2022-09-10T15:49:23.088Z,21.4
2022-09-10T15:51:38.265Z,21.3
2022-09-10T15:53:53.112Z,22.6
2022-09-10T15:56:08.132Z,21.3
2022-09-10T15:58:22.866Z,21.5
2022-09-10T16:00:38.110Z,21.4
2022-09-10T16:02:53.093Z,21.6
2022-09-10T16:05:07.231Z,21.4
2022-09-10T16:07:43.755Z,21.8
2022-09-10T16:09:58.617Z,21.4
2022-09-10T16:12:15.948Z,21.3
2022-09-10T16:14:28.557Z,21.5
2022-09-10T16:16:42.715Z,21.5
2022-09-10T16:18:57.514Z,21.2
2022-09-10T16:23:27.919Z,21.4
2022-09-10T16:25:48.735Z,21.4
2022-09-10T16:28:03.733Z,21.1
2022-09-10T16:30:23.979Z,21.2
2022-09-10T16:32:39.120Z,21
2022-09-10T16:34:53.947Z,21.3
2022-09-10T16:37:08.805Z,20.8
2022-09-10T16:41:38.822Z,22.3
2022-09-10T16:43:53.493Z,21.3
2022-09-10T16:46:14.515Z,20.8
2022-09-10T16:48:35.778Z,20.9
2022-09-10T16:50:56.398Z,20.7
2022-09-10T16:53:30.204Z,20.6
2022-09-10T16:55:45.297Z,20.6
2022-09-10T16:58:05.517Z,20.9
2022-09-10T17:00:20.246Z,20.8
2022-09-10T17:02:35.254Z,20.4
2022-09-10T17:04:50.602Z,20.4
2022-09-10T17:07:05.303Z,20.6
2022-09-10T17:09:20.145Z,20.2
2022-09-10T17:11:35.569Z,19.9
2022-09-10T17:13:49.875Z,19.8
2022-09-10T17:16:07.636Z,20
2022-09-10T17:18:19.681Z,19.8
2022-09-10T17:20:40.904Z,20.1
2022-09-10T17:22:55.720Z,19.6
2022-09-10T17:26:09.216Z,19.6
2022-09-10T17:28:24.051Z,19.6
2022-09-10T17:30:44.828Z,19.9
2022-09-10T17:33:06.137Z,19.8
2022-09-10T17:35:20.939Z,19.9
2022-09-10T17:37:35.736Z,19.8
2022-09-10T17:39:50.784Z,19.7
2022-09-10T17:42:05.558Z,19.9
2022-09-10T17:44:20.361Z,19.8
2022-09-10T17:46:35.236Z,19.6
2022-09-10T17:48:49.483Z,19.1
2022-09-10T17:51:04.883Z,19.8
2022-09-10T17:53:19.737Z,19.7
2022-09-10T17:55:34.975Z,19.7
2022-09-10T17:57:49.351Z,19.8
2022-09-10T18:00:04.297Z,19.6
2022-09-10T18:02:19.235Z,19.6
2022-09-10T18:04:40.492Z,19.4
2022-09-10T18:07:15.351Z,20.1
2022-09-10T18:09:30.022Z,19.6
2022-09-10T18:11:45.235Z,19.5
2022-09-10T18:14:05.912Z,19.6
2022-09-10T18:16:26.796Z,19.8
2022-09-10T18:19:03.231Z,19.7
2022-09-10T18:21:16.015Z,19.6
2022-09-10T18:23:36.705Z,19.6
2022-09-10T18:26:05.234Z,19.3
2022-09-10T18:28:26.427Z,19.4
2022-09-10T18:30:47.164Z,19.1
2022-09-10T18:33:02.130Z,19.1
2022-09-10T18:35:22.573Z,19.6
2022-09-10T18:37:42.345Z,19.6
2022-09-10T18:40:03.148Z,19.3
2022-09-10T18:42:17.926Z,19.1
2022-09-10T18:44:33.312Z,19.3
2022-09-10T18:46:48.214Z,19.3
2022-09-10T21:01:51.836Z,18
2022-09-10T21:04:07.212Z,18.8
2022-09-10T21:06:22.406Z,18
2022-09-10T21:08:36.930Z,17.4
2022-09-10T21:10:52.086Z,18.3
2022-09-10T21:13:07.194Z,18.9
2022-09-10T21:15:25.725Z,17.8
2022-09-10T21:17:40.832Z,18.6
2022-09-10T21:19:55.389Z,17.4
2022-09-10T21:22:10.407Z,18.1
2022-09-10T21:24:25.185Z,17.4
2022-09-10T21:26:39.442Z,17.4
2022-09-10T21:28:55.108Z,17.4
2022-09-10T21:31:10.376Z,18.6
2022-09-10T21:33:24.894Z,17.6
2022-09-10T21:35:44.229Z,18.1
2022-09-10T21:37:59.307Z,17.2
2022-09-10T21:40:14.199Z,18.3
2022-09-10T21:42:28.878Z,18.1
2022-09-10T21:46:58.696Z,17.4
2022-09-10T21:49:14.661Z,18.3
2022-09-10T21:51:28.579Z,17.4
2022-09-10T21:53:43.657Z,18.2
2022-09-10T21:55:58.837Z,17.3
2022-09-10T21:58:13.497Z,18.4
2022-09-10T22:00:28.444Z,17.9
2022-09-10T22:02:43.393Z,17.4
2022-09-10T22:04:58.351Z,17.9
2022-09-10T22:07:13.305Z,17.9
2022-09-10T22:09:27.697Z,18.5
2022-09-10T22:12:03.339Z,18.8
2022-09-10T22:14:18.241Z,18.5
2022-09-10T22:16:33.232Z,18.1
2022-09-10T22:18:48.139Z,18.4
2022-09-10T22:21:03.200Z,17.9
2022-09-10T22:23:18.022Z,18.8
2022-09-10T22:25:32.946Z,18.1
2022-09-10T22:27:48.086Z,17.6
2022-09-10T22:30:02.329Z,17.5
2022-09-10T22:32:29.610Z,17.5
2022-09-10T22:34:36.085Z,17.3
2022-09-10T22:36:47.708Z,18.5
2022-09-10T22:39:02.685Z,17.9
2022-09-10T22:41:17.708Z,17.7
2022-09-10T22:43:32.554Z,17.4
2022-09-10T22:45:47.456Z,17.9
2022-09-10T22:48:02.753Z,17.6
2022-09-10T22:50:17.460Z,17.4
2022-09-10T22:52:32.391Z,17.8
2022-09-10T22:54:47.122Z,17.9
2022-09-10T22:57:02.284Z,17.8
2022-09-10T22:59:17.228Z,17.9
2022-09-10T23:01:32.233Z,17.1
2022-09-10T23:03:47.559Z,17.3
2022-09-10T23:06:02.230Z,17.4
2022-09-10T23:08:17.241Z,17.1
2022-09-10T23:10:32.532Z,17.6
2022-09-10T23:12:47.514Z,17.7
2022-09-10T23:15:02.441Z,17.1
2022-09-10T23:17:21.939Z,16.7
2022-09-10T23:19:39.170Z,17.3
2022-09-10T23:21:54.047Z,16.8
2022-09-10T23:24:10.524Z,17.6
2022-09-10T23:26:24.065Z,17.8
2022-09-10T23:28:38.443Z,18.1
2022-09-10T23:30:54.007Z,16.6
2022-09-10T23:33:08.297Z,16.4
2022-09-10T23:35:42.775Z,17.3
2022-09-10T23:37:57.779Z,16.1
2022-09-10T23:40:12.850Z,16.5
